Portada
METAR-TAF:

METAR-TAF

Aeropuertos :

Kuching, Malasia

latitud: 01-29N, longitud: 110-20E, altitud: 27 m

Observación

El informe se hizo hace 24 minutos, a las 15:00 UTC
Viento 2 kt con dirección variable
Temperatura 27°C
Humedad 94%
Presión 1011 hPa
Visibilidad 10 km o más
Escasas nubes a una altura de 1500 ft, Cumulonimbus.
Nubes dispersas a una altura de 2000 ft
Cielo nuboso a una altura de 15000 ft

METAR: WBGG 191500Z VRB02KT 9999 FEW015CB SCT020 BKN150 27/26 Q1011 NOSIG

Hora: 23:24 (15:24 UTC)

Pronóstico

El informe se hizo hace 4 horas y 24 minutos, a las 11:00 UTC
Pronóstico válido del 19 a las 12 UTC al 20 a las 12 UTC
Viento 5 kt del oeste-suroeste
Visibilidad 10 km o más
Nubes dispersas a una altura de 2000 ft
Temporalmente
del 19 a las 20 UTC al 20 a las 00 UTC
Visibilidad: 5000 m
Escasas nubes a una altura de 500 ft
lluvia

TAF: WBGG 191100Z 1912/2012 25005KT 9999 SCT020 TEMPO 1920/2000 5000 RA FEW005

Observaciones y pronósticos meteorológicos de más de 4000 aeropuertos (mensajes METAR y TAF).

Los puntos amarillos y rojos representan las estaciones disponibles.

Ponga el ratón en el punto deseado para ver el nombre de la estación.

Haga clic para ver las observaciones y los pronósticos meteorológicos.

Para cambiar el mapa : haga clic en los botones verdes con una cruz de color negro para hacer un zoom, en el botón verde con un guión para alejar o en las flechas verdes para mapas adyacentes.


METAR-TAF: